AirNav   Everest Fuels
 
 1449 users online  

FA34 Beach Mosquito Control District Heliport
Panama City Beach, Florida, USA

GOING TO PANAMA CITY BEACH?


FAA INFORMATION EFFECTIVE 16 JULY 2020

Location

FAA Identifier: FA34
Lat/Long: 30-12-28.6800N 085-49-45.2800W
30-12.478000N 085-49.754667W
30.2079667,-85.8292444
(estimated)
Elevation: 14 ft. / 4 m (estimated)
Variation: 01W (1995)
From city: 2 miles NW of PANAMA CITY BEACH, FL
Time zone: UTC -5 (UTC -6 during Standard Time)
Zip code: 32407

Heliport Operations

Heliport use: Private use. Permission required prior to landing
Activation date: 12/1997
Control tower: no
ARTCC: JACKSONVILLE CENTER
FSS: GAINESVILLE FLIGHT SERVICE STATION
Attendance: UNATNDD
Wind indicator: lighted
Segmented circle: no
Lights: ON DEMAND SWITCH ACT - CTC AMGR FOR INFO.

Heliport Communications

WX ASOS at ECP (9 nm N): 119.975 (850-235-7857)

Nearby radio navigation aids

NDB name  Hdg/Dist  Freq  Var  ID
LYNNE203/7.527804WPFN .--. ..-. -.

Heliport Services

Runway Information

Helipad H1

Dimensions: 50 x 50 ft. / 15 x 15 m
Surface: concrete, in excellent condition
Runway edge lights: FLD
Latitude: 30-12.478000N
Longitude: 085-49.754667W
Elevation: 14.0 ft.
Traffic pattern: leftleft
Markings: , in good condition

Heliport Ownership and Management from official FAA records

Ownership: Privately-owned
Owner: BEACH MOSQUITO DISTRICT
1016 COX GRADE RD
PANAMA CITY BEACH, FL 32407
Phone 850-233-5030
Manager: JAMES F. CLAUSON
1016 COX GRADE RD
PANAMA CITY BEACH, FL 32407
Phone 850-233-5030

Heliport Operational Statistics

Aircraft based on the field: 1
Helicopters: 1
    

Additional Remarks

FOR CD CTC TYNDALL APCH AT 850-283-2900 OR 850-283-3353, WHEN APCH CLSD CTC JACKSONVILLE ARTCC AT 904-845-1592.

Instrument Procedures

There are no published instrument procedures at FA34.

Some nearby airports with instrument procedures:

KECP - Northwest Florida Beaches International Airport (9 nm N)
KPAM - Tyndall Air Force Base (16 nm SE)
KDTS - Destin Executive Airport (35 nm W)
54J - DeFuniak Springs Airport (36 nm NW)
KVPS - Eglin Air Force Base/Destin-Fort Walton Beach Airport (40 nm NW)
 
Loc | Ops | Rwys | IFR | FBO | Links
Com | Nav | Svcs | Stats | Notes

Continental Services
AirBoss

 
Area around FA34 (Beach Mosquito Control District Heliport)
 
Road maps at: MapQuest Bing Google
 
Aerial photo
No photo
 
Sectional chart

 
Airport distance calculator
Flying to Beach Mosquito Control District Heliport? Find the distance to fly.

From to FA34

Sunrise and sunset
Times for 07-Aug-2020
 Local
(UTC-5)
 Zulu
(UTC)
Morning civil twilight05:4210:42
Sunrise06:0711:07
Sunset19:3100:31
Evening civil twilight19:5600:56

Current date and time
Zulu (UTC)  07-Aug-2020 17:18:32
Local (UTC-5)  07-Aug-2020 12:18:32
 
METAR
KECP 
9nm N 
071653Z 31011KT 10SM VCTS SCT026 BKN041 BKN055 28/24 A3009 RMK AO2 LTG DSNT W AND NW RAE1558 TSE1558 SLP198 P0000 T02830239
KPAM 
16nm SE 
071656Z 23008KT 10SM CLR 32/24 A3008 RMK AO2A SLP189 T03170237 $
KTDR 
19nm SE 
071656Z AUTO 24007KT 10SM CLR 33/25 A3009 RMK AO2 LTG DSNT S SLP193 T03250246 $
TAF
KECP 
9nm N 
071605Z 0716/0812 21007KT P6SM VCTS SCT050CB TEMPO 0716/0718 4SM TSRA BKN020CB FM071800 21007KT P6SM SCT050
KPAM 
16nm SE 
070025Z 0700/0801 22012KT 9999 FEW020 QNH2996INS BECMG 0710/0711 26006KT 9999 SCT020 QNH2997INS BECMG 0717/0718 22012KT 9999 FEW030 QNH3000INS TX32/0719Z TN26/0711Z LAST NO AMDS AFT 0701 NEXT 0711
NOTAMs
Click for the latest NOTAMs
NOTAMs are issued by the DoD/FAA and will open in a separate window not controlled by AirNav.

 

 
 

Would you like to see your business listed on this page?

 If your business provides an interesting product or service to pilots, flight crews, aircraft, or users of the Beach Mosquito Control District Heliport, you should consider listing it here.  To start the listing process, click on the button below
 
Add a business
 

Other Pages about Beach Mosquito Control District Heliport

Update a link
 
Copyright © AirNav, LLC. All rights reserved. Privacy Policy  Contact